Time;durP1;ratioP1;P1;durP2;ratioP2;P2;SDS_P1;SDS_P2;PMS_P1;PMS_P2;Temp;Humidity;BMP_temperature;BMP_pressure;BME280_temperature;BME280_humidity;BME280_pressure;Samples;Min_cycle;Max_cycle;Signal;HPM_P1;HPM_P2
2022/07/09 00:01:39;;;;;;;10.68;8.57;;;;;;;18.05;96.65;97592.22;10414372;28;20079;-57
2022/07/09 00:06:38;;;;;;;9.55;8.13;;;;;;;18.03;96.53;97578.28;10413893;28;20025;-57
2022/07/09 00:11:37;;;;;;;9.70;7.82;;;;;;;17.99;96.93;97574.06;10408985;28;20043;-57
2022/07/09 00:16:36;;;;;;;10.73;8.32;;;;;;;17.94;97.25;97568.97;10413193;28;20472;-57
2022/07/09 00:21:35;;;;;;;10.13;7.90;;;;;;;17.90;97.00;97567.34;10414326;28;20479;-57
2022/07/09 00:26:34;;;;;;;11.07;8.70;;;;;;;17.84;97.14;97549.16;10413705;28;20033;-57
2022/07/09 00:31:33;;;;;;;10.35;7.85;;;;;;;17.88;97.06;97552.56;10413307;28;20055;-57
2022/07/09 00:36:32;;;;;;;15.25;9.27;;;;;;;17.88;97.22;97552.56;10413843;28;20032;-57
2022/07/09 00:41:31;;;;;;;13.73;9.45;;;;;;;17.80;97.71;97550.19;10412950;28;20486;-57
2022/07/09 00:46:30;;;;;;;17.90;10.15;;;;;;;17.78;97.82;97546.75;10413365;28;20474;-57
2022/07/09 00:51:30;;;;;;;11.75;8.90;;;;;;;17.79;97.79;97545.84;10413656;28;20542;-57
2022/07/09 00:56:30;;;;;;;11.35;8.43;;;;;;;17.74;98.02;97545.09;10413407;28;20068;-57
2022/07/09 01:01:29;;;;;;;12.30;8.43;;;;;;;17.77;98.17;97547.66;10412914;28;20060;-57
2022/07/09 01:06:28;;;;;;;9.82;8.00;;;;;;;17.73;98.01;97548.63;10413244;28;20533;-57
2022/07/09 01:11:27;;;;;;;14.73;9.10;;;;;;;17.67;98.28;97544.44;10412527;28;20021;-57
2022/07/09 01:16:39;;;;;;;13.20;9.38;;;;;;;17.58;99.00;97550.00;10412544;28;20064;-57
2022/07/09 01:21:38;;;;;;;14.30;9.77;;;;;;;17.51;99.22;97544.09;10417197;28;20072;-57
2022/07/09 01:26:37;;;;;;;17.05;9.10;;;;;;;17.52;98.96;97540.56;10420018;28;20031;-57
2022/07/09 01:31:36;;;;;;;11.02;8.00;;;;;;;17.42;98.94;97540.91;10420253;28;20473;-57
2022/07/09 01:36:35;;;;;;;10.05;7.43;;;;;;;17.24;99.55;97548.47;10419505;28;20068;-57
2022/07/09 01:41:34;;;;;;;10.55;7.88;;;;;;;17.26;99.58;97544.03;10419945;28;20045;-57
2022/07/09 01:46:33;;;;;;;10.82;7.82;;;;;;;17.30;99.97;97534.28;10419070;28;20044;-57
2022/07/09 01:51:34;;;;;;;13.00;8.85;;;;;;;17.37;100.00;97537.56;10420391;28;20072;-57
2022/07/09 01:56:34;;;;;;;11.65;9.25;;;;;;;17.45;100.00;97528.56;10419228;28;20253;-57
2022/07/09 02:01:33;;;;;;;11.02;8.82;;;;;;;17.53;100.00;97541.41;10419072;28;20083;-57
2022/07/09 02:06:32;;;;;;;11.65;8.88;;;;;;;17.58;100.00;97533.41;10418329;28;20028;-57
2022/07/09 02:11:31;;;;;;;14.68;9.27;;;;;;;17.63;100.00;97537.56;10418485;28;20034;-57
2022/07/09 02:16:30;;;;;;;12.02;9.48;;;;;;;17.64;100.00;97541.94;10418589;28;20527;-57
2022/07/09 02:21:29;;;;;;;14.02;9.52;;;;;;;17.65;100.00;97534.91;10417827;28;20576;-57
2022/07/09 02:26:29;;;;;;;11.80;9.52;;;;;;;17.70;100.00;97544.34;10420353;28;20044;-57
2022/07/09 02:31:28;;;;;;;13.00;10.23;;;;;;;17.70;100.00;97540.88;10420770;28;20072;-57
2022/07/09 02:36:27;;;;;;;16.20;10.77;;;;;;;17.71;100.00;97543.44;10420541;28;20036;-57
2022/07/09 02:41:26;;;;;;;14.73;10.85;;;;;;;17.72;100.00;97537.28;10421571;28;20040;-57
2022/07/09 02:46:25;;;;;;;16.33;11.80;;;;;;;17.75;100.00;97541.56;10420152;28;20101;-57
2022/07/09 02:51:23;;;;;;;14.38;11.32;;;;;;;17.74;100.00;97534.63;10420063;28;20115;-57
2022/07/09 02:56:22;;;;;;;16.67;11.48;;;;;;;17.75;100.00;97538.94;10420958;28;20044;-57
2022/07/09 03:01:22;;;;;;;16.13;10.85;;;;;;;17.74;100.00;97529.38;10419547;28;20036;-58
2022/07/09 03:06:21;;;;;;;15.18;11.13;;;;;;;17.72;100.00;97532.03;10419417;28;20570;-58
2022/07/09 03:11:20;;;;;;;15.35;11.40;;;;;;;17.70;100.00;97538.25;10419910;28;20060;-57
2022/07/09 03:16:19;;;;;;;14.10;10.77;;;;;;;17.66;100.00;97540.13;10418943;28;20111;-57
2022/07/09 03:21:18;;;;;;;13.68;11.18;;;;;;;17.67;100.00;97552.31;10418902;28;20040;-58
2022/07/09 03:26:17;;;;;;;16.60;11.77;;;;;;;17.65;100.00;97546.25;10417009;28;20044;-58
2022/07/09 03:31:16;;;;;;;14.85;11.80;;;;;;;17.62;100.00;97546.38;10415206;28;20012;-58
2022/07/09 03:36:15;;;;;;;13.73;10.98;;;;;;;17.66;100.00;97548.00;10414625;28;20075;-58
2022/07/09 03:41:14;;;;;;;15.95;11.02;;;;;;;17.64;100.00;97552.44;10414935;28;20046;-58
2022/07/09 03:46:14;;;;;;;11.75;9.73;;;;;;;17.66;100.00;97557.59;10414378;28;20431;-58
2022/07/09 03:51:13;;;;;;;13.23;9.95;;;;;;;17.69;100.00;97557.53;10414686;28;20464;-57
2022/07/09 03:56:12;;;;;;;11.38;9.45;;;;;;;17.72;100.00;97558.28;10414720;28;20111;-58
2022/07/09 04:01:11;;;;;;;10.60;8.85;;;;;;;17.77;100.00;97556.38;10413991;28;20028;-58
2022/07/09 04:06:10;;;;;;;11.07;9.02;;;;;;;17.83;99.94;97549.25;10414212;28;20032;-58
2022/07/09 04:11:09;;;;;;;10.27;8.93;;;;;;;17.90;99.96;97553.38;10414074;28;20071;-58
2022/07/09 04:16:08;;;;;;;11.23;8.95;;;;;;;17.90;99.65;97550.75;10413584;28;20102;-58
2022/07/09 04:21:08;;;;;;;10.48;8.20;;;;;;;18.00;99.72;97557.38;10413955;28;20503;-58
2022/07/09 04:26:07;;;;;;;11.70;9.45;;;;;;;18.07;99.36;97569.41;10414013;28;20059;-58
2022/07/09 04:31:06;;;;;;;10.70;8.75;;;;;;;18.13;98.75;97568.34;10411657;28;20028;-58
2022/07/09 04:36:05;;;;;;;11.55;9.80;;;;;;;18.13;98.33;97568.34;10412656;28;20040;-58
2022/07/09 04:41:04;;;;;;;12.70;10.18;;;;;;;18.17;97.47;97565.56;10413399;28;20499;-57
2022/07/09 04:46:03;;;;;;;10.30;9.20;;;;;;;18.25;97.22;97572.31;10413090;28;20068;-57
2022/07/09 04:51:02;;;;;;;12.88;10.02;;;;;;;18.42;96.60;97579.59;10413600;28;20063;-58
2022/07/09 04:56:01;;;;;;;14.55;10.30;;;;;;;18.52;95.93;97573.09;10414017;28;20052;-58
2022/07/09 05:01:00;;;;;;;15.85;11.70;;;;;;;18.66;95.71;97573.44;10419515;28;20024;-58
2022/07/09 05:05:59;;;;;;;14.65;10.32;;;;;;;18.78;94.91;97572.19;10419703;28;20039;-58
2022/07/09 05:10:58;;;;;;;11.30;8.35;;;;;;;18.88;94.49;97577.94;10420858;28;20511;-58
2022/07/09 05:15:57;;;;;;;9.75;7.13;;;;;;;18.90;93.67;97578.75;10420408;28;20131;-58
2022/07/09 05:20:57;;;;;;;8.52;7.05;;;;;;;18.94;92.88;97583.84;10420280;28;20109;-58
2022/07/09 05:25:55;;;;;;;7.80;5.97;;;;;;;19.01;92.48;97585.31;10422130;28;20071;-58
2022/07/09 05:30:55;;;;;;;6.72;5.75;;;;;;;19.00;91.57;97578.34;10421159;28;20156;-58
2022/07/09 05:35:53;;;;;;;8.02;6.18;;;;;;;19.00;90.40;97577.50;10422743;28;20068;-58
2022/07/09 05:40:52;;;;;;;7.68;5.95;;;;;;;19.07;89.94;97589.50;10422312;28;20040;-58
2022/07/09 05:45:51;;;;;;;6.07;4.97;;;;;;;18.91;87.55;97598.88;10420960;28;20076;-58
2022/07/09 05:50:50;;;;;;;5.93;5.20;;;;;;;18.88;87.49;97594.59;10419359;28;20068;-58
2022/07/09 05:55:49;;;;;;;9.73;6.43;;;;;;;18.95;88.32;97590.81;10389501;28;20028;-58
2022/07/09 06:00:48;;;;;;;6.45;5.45;;;;;;;18.93;88.07;97603.16;10389569;28;20064;-58
2022/07/09 06:05:47;;;;;;;6.10;4.75;;;;;;;18.87;87.66;97603.38;10399926;28;20115;-58
2022/07/09 06:10:46;;;;;;;8.80;5.22;;;;;;;18.88;87.83;97601.59;10409914;28;20071;-58
2022/07/09 06:15:45;;;;;;;5.32;4.72;;;;;;;18.80;88.11;97601.91;10417198;28;20055;-58
2022/07/09 06:20:45;;;;;;;5.82;5.22;;;;;;;18.58;86.88;97607.91;10421501;28;20107;-58
2022/07/09 06:25:44;;;;;;;6.03;4.93;;;;;;;18.49;86.93;97604.75;10419617;28;20123;-58
2022/07/09 06:30:43;;;;;;;6.80;5.38;;;;;;;18.45;87.16;97611.88;10417357;28;20415;-58
2022/07/09 06:35:42;;;;;;;8.15;5.82;;;;;;;18.38;87.48;97610.38;10417488;28;20518;-57
2022/07/09 06:40:41;;;;;;;9.02;6.40;;;;;;;18.23;88.20;97618.78;10417586;28;20505;-57
2022/07/09 06:45:40;;;;;;;7.57;6.10;;;;;;;18.09;88.18;97619.25;10416540;28;20043;-58
2022/07/09 06:50:39;;;;;;;6.28;5.57;;;;;;;18.07;87.82;97627.16;10416495;28;20082;-58
2022/07/09 06:55:38;;;;;;;7.32;5.63;;;;;;;17.89;86.96;97627.75;10409366;28;20040;-57
2022/07/09 07:00:37;;;;;;;6.25;5.57;;;;;;;17.67;86.73;97630.19;10411862;28;20131;-57
2022/07/09 07:05:36;;;;;;;7.40;5.80;;;;;;;17.50;87.75;97641.22;10415759;28;20028;-57
2022/07/09 07:10:35;;;;;;;8.60;6.88;;;;;;;17.35;89.49;97638.16;10407799;28;20377;-57
2022/07/09 07:15:34;;;;;;;9.02;7.88;;;;;;;17.23;90.00;97635.03;10413120;28;20032;-57
2022/07/09 07:20:33;;;;;;;10.82;8.20;;;;;;;17.11;91.45;97636.25;10413187;28;20547;-58
2022/07/09 07:25:32;;;;;;;9.55;8.32;;;;;;;17.06;91.77;97640.78;10415182;28;20064;-58
2022/07/09 07:30:32;;;;;;;9.93;7.20;;;;;;;16.99;92.34;97645.34;10415389;28;20473;-57
2022/07/09 07:35:31;;;;;;;9.90;7.63;;;;;;;16.89;93.40;97639.50;10414198;28;20075;-57
2022/07/09 07:40:30;;;;;;;9.13;7.78;;;;;;;17.11;92.79;97638.88;10414086;28;20091;-58
2022/07/09 07:45:30;;;;;;;8.70;7.80;;;;;;;17.16;92.33;97631.72;10415467;28;20553;-58
2022/07/09 07:50:29;;;;;;;8.45;7.53;;;;;;;17.14;92.51;97638.78;10414443;28;20109;-58
2022/07/09 07:55:28;;;;;;;9.48;8.13;;;;;;;17.05;92.46;97639.03;10413838;28;20068;-58
2022/07/09 08:00:27;;;;;;;10.60;8.60;;;;;;;16.96;93.53;97640.19;10414218;28;20111;-58
2022/07/09 08:05:26;;;;;;;12.98;10.10;;;;;;;17.00;93.03;97641.78;10415731;28;20056;-56
2022/07/09 08:10:26;;;;;;;12.77;10.20;;;;;;;16.78;93.79;97631.03;10415077;28;20044;-56
2022/07/09 08:15:25;;;;;;;16.85;12.95;;;;;;;16.82;94.74;97653.69;10410160;28;20060;-57
2022/07/09 08:20:23;;;;;;;18.55;14.07;;;;;;;16.82;95.32;97645.81;10412527;28;20048;-57
2022/07/09 08:25:22;;;;;;;21.65;15.60;;;;;;;16.67;96.03;97648.81;10416190;28;20055;-56
2022/07/09 08:30:21;;;;;;;;;;;;;;;16.48;95.81;97649.28;10426131;28;20037;-56
2022/07/09 08:35:20;;;;;;;14.90;12.57;;;;;;;16.41;97.01;97647.75;10426814;28;20374;-56
2022/07/09 08:40:19;;;;;;;;;;;;;;;16.35;97.68;97657.50;10432748;28;20046;-57
2022/07/09 08:45:20;;;;;;;13.02;11.45;;;;;;;16.13;97.68;97647.59;10431878;28;20345;-57
2022/07/09 08:50:21;;;;;;;13.02;10.35;;;;;;;16.15;97.81;97653.66;10430040;28;20064;-56
2022/07/09 08:55:21;;;;;;;16.05;14.30;;;;;;;16.05;99.44;97654.78;10429643;28;20078;-56
2022/07/09 09:00:20;;;;;;;17.70;13.27;;;;;;;16.12;99.81;97655.50;10429868;28;20067;-56
2022/07/09 09:05:19;;;;;;;16.45;14.15;;;;;;;16.01;100.00;97659.22;10429627;28;20041;-56
2022/07/09 09:10:22;;;;;;;;;;;;;;;16.08;100.00;97655.56;10429704;28;20048;-57
2022/07/09 09:15:21;;;;;;;14.40;11.82;;;;;;;16.18;99.99;97657.94;10429940;28;19982;-57
2022/07/09 09:20:20;;;;;;;16.65;12.75;;;;;;;16.41;98.97;97655.59;10429633;28;20054;-57
2022/07/09 09:25:21;;;;;;;12.57;10.95;;;;;;;16.62;98.93;97671.66;10427802;28;20552;-57
2022/07/09 09:30:21;;;;;;;13.05;10.93;;;;;;;16.78;97.80;97666.88;10426129;28;20476;-56
2022/07/09 09:35:20;;;;;;;11.88;10.68;;;;;;;16.78;97.81;97672.97;10426435;28;20507;-57
2022/07/09 09:40:19;;;;;;;13.48;11.98;;;;;;;16.88;98.47;97663.13;10421929;28;20507;-57
2022/07/09 09:45:18;;;;;;;12.13;10.52;;;;;;;17.17;98.02;97674.53;10418710;28;20133;-57
2022/07/09 09:50:19;;;;;;;12.30;10.73;;;;;;;17.18;95.42;97678.88;10419464;28;20067;-57
2022/07/09 09:55:20;;;;;;;15.70;13.27;;;;;;;17.35;95.42;97680.13;10419236;28;20272;-57
2022/07/09 10:00:19;;;;;;;12.45;10.10;;;;;;;17.44;93.57;97652.75;10418194;28;20067;-56
2022/07/09 10:05:18;;;;;;;12.88;11.57;;;;;;;17.82;92.78;97678.75;10418820;28;20053;-58
2022/07/09 10:10:19;;;;;;;12.20;10.20;;;;;;;17.89;89.84;97667.16;10417646;28;20048;-58
2022/07/09 10:15:24;;;;;;;12.68;10.88;;;;;;;17.82;89.71;97670.88;10417951;28;20492;-56
2022/07/09 10:20:32;;;;;;;11.82;10.63;;;;;;;18.04;88.46;97666.66;10418575;28;20099;-56
2022/07/09 10:25:43;;;;;;;14.48;11.05;;;;;;;17.96;89.11;97666.03;10417749;28;20076;-57
2022/07/09 10:30:42;;;;;;;10.27;9.27;;;;;;;17.93;88.86;97655.66;10417867;28;20499;-56
2022/07/09 10:35:42;;;;;;;11.43;10.23;;;;;;;18.14;88.38;97665.44;10417382;28;20075;-58
2022/07/09 10:40:46;;;;;;;10.77;9.60;;;;;;;18.20;87.45;97664.41;10416900;28;20076;-57
2022/07/09 10:45:45;;;;;;;10.15;7.78;;;;;;;18.29;85.18;97647.44;10416262;28;20499;-56
2022/07/09 10:50:48;;;;;;;9.15;8.25;;;;;;;18.99;85.43;97659.94;10417306;28;20439;-56
2022/07/09 10:55:48;;;;;;;10.32;7.97;;;;;;;18.88;83.49;97647.19;10415549;28;20056;-57
2022/07/09 11:00:59;;;;;;;9.00;8.10;;;;;;;19.06;83.33;97650.03;10415387;28;20068;-57
2022/07/09 11:05:58;;;;;;;8.55;7.47;;;;;;;18.87;82.86;97647.22;10415818;28;20086;-57
2022/07/09 11:10:57;;;;;;;9.10;8.20;;;;;;;19.01;81.88;97647.59;10415256;28;20495;-57
2022/07/09 11:16:01;;;;;;;8.77;7.78;;;;;;;19.12;80.52;97647.19;10415426;28;20498;-57
2022/07/09 11:21:00;;;;;;;7.88;6.40;;;;;;;19.14;78.90;97655.91;10415579;28;20064;-58
2022/07/09 11:25:59;;;;;;;9.70;7.55;;;;;;;19.03;79.37;97651.03;10416065;28;20101;-57
2022/07/09 11:31:02;;;;;;;11.35;8.00;;;;;;;18.69;81.00;97646.09;10414888;28;20486;-57
2022/07/09 11:36:01;;;;;;;9.90;8.20;;;;;;;18.68;80.72;97633.84;10414355;28;20056;-57
2022/07/09 11:41:03;;;;;;;8.90;8.00;;;;;;;18.60;81.19;97632.38;10415143;28;20132;-57
2022/07/09 11:46:02;;;;;;;7.57;6.80;;;;;;;18.19;82.18;97633.78;10413121;28;20060;-57
2022/07/09 11:51:01;;;;;;;10.23;7.97;;;;;;;18.07;84.38;97631.56;10414280;28;20028;-57
2022/07/09 11:56:01;;;;;;;11.77;9.13;;;;;;;17.62;87.96;97635.59;10414278;28;20021;-57
2022/07/09 12:01:02;;;;;;;11.82;9.80;;;;;;;17.63;88.69;97632.03;10413724;28;20067;-57
2022/07/09 12:06:01;;;;;;;10.00;8.90;;;;;;;17.60;89.28;97634.78;10414196;28;20068;-57
2022/07/09 12:11:00;;;;;;;10.32;9.23;;;;;;;17.60;89.09;97624.28;10413771;28;20464;-57
2022/07/09 12:15:59;;;;;;;9.80;8.55;;;;;;;17.90;87.11;97629.50;10413660;28;20056;-57
2022/07/09 12:20:58;;;;;;;9.32;8.32;;;;;;;18.00;86.23;97635.31;10413688;28;20078;-57
2022/07/09 12:25:57;;;;;;;9.98;8.05;;;;;;;17.99;84.82;97634.47;10413543;28;20041;-57
2022/07/09 12:30:56;;;;;;;9.30;7.65;;;;;;;17.92;84.60;97622.44;10413062;28;20140;-57
2022/07/09 12:35:55;;;;;;;8.68;7.60;;;;;;;17.92;84.48;97623.28;10410030;28;20116;-57
2022/07/09 12:40:54;;;;;;;8.98;7.68;;;;;;;18.00;84.22;97624.81;10372216;28;20533;-57
2022/07/09 12:45:54;;;;;;;8.77;6.70;;;;;;;18.16;83.36;97621.59;10371683;28;20380;-57
2022/07/09 12:50:53;;;;;;;8.13;7.10;;;;;;;18.47;82.19;97620.56;10371937;28;20075;-57
2022/07/09 12:55:52;;;;;;;8.07;7.13;;;;;;;18.78;81.77;97614.25;10372271;28;20041;-57
2022/07/09 13:00:50;;;;;;;7.78;6.88;;;;;;;19.22;79.38;97617.84;10396899;28;20035;-57
2022/07/09 13:05:50;;;;;;;7.05;6.13;;;;;;;19.72;76.86;97608.94;10412656;28;20036;-58
2022/07/09 13:10:49;;;;;;;6.80;5.85;;;;;;;20.36;76.01;97600.13;10412434;28;20511;-57
2022/07/09 13:15:48;;;;;;;10.00;6.20;;;;;;;20.77;72.48;97594.84;10413793;28;20545;-57
2022/07/09 13:20:47;;;;;;;8.38;7.05;;;;;;;21.24;72.67;97591.00;10420977;28;20090;-57
2022/07/09 13:25:46;;;;;;;7.70;6.63;;;;;;;21.54;72.64;97578.13;10421408;28;20032;-57
2022/07/09 13:30:44;;;;;;;7.75;6.60;;;;;;;21.66;70.74;97574.03;10423321;28;20032;-57
2022/07/09 13:35:43;;;;;;;9.82;6.53;;;;;;;21.70;69.40;97570.34;10423631;28;20514;-57
2022/07/09 13:40:42;;;;;;;8.55;6.32;;;;;;;22.01;69.84;97568.84;10423396;28;20053;-58
2022/07/09 13:45:41;;;;;;;8.35;6.28;;;;;;;21.90;66.87;97562.28;10422350;28;20029;-58
2022/07/09 13:50:40;;;;;;;8.35;6.47;;;;;;;21.96;68.91;97543.47;10422604;28;20573;-57
2022/07/09 13:55:39;;;;;;;8.90;7.68;;;;;;;21.91;68.73;97563.97;10422336;28;20062;-57
2022/07/09 14:00:39;;;;;;;7.75;6.95;;;;;;;21.80;69.92;97555.72;10421634;28;20052;-58
2022/07/09 14:05:38;;;;;;;9.50;6.80;;;;;;;21.70;69.39;97551.84;10421591;28;20056;-57
2022/07/09 14:10:37;;;;;;;7.43;6.05;;;;;;;21.56;67.94;97557.78;10422001;28;20533;-57
2022/07/09 14:15:37;;;;;;;7.78;6.18;;;;;;;21.50;68.16;97553.69;10421607;28;20027;-58
2022/07/09 14:20:35;;;;;;;7.57;5.95;;;;;;;21.75;68.78;97552.47;10421804;28;20073;-58
2022/07/09 14:25:34;;;;;;;7.65;6.13;;;;;;;21.99;68.50;97544.28;10419716;28;20508;-58
2022/07/09 14:30:33;;;;;;;7.43;6.15;;;;;;;22.27;68.14;97535.78;10416641;28;20067;-57
2022/07/09 14:35:33;;;;;;;6.57;5.88;;;;;;;22.52;66.25;97532.72;10417115;28;20060;-57
2022/07/09 14:40:32;;;;;;;6.47;5.78;;;;;;;22.63;64.08;97540.97;10417263;28;20071;-57
2022/07/09 14:45:31;;;;;;;10.50;6.10;;;;;;;22.44;64.94;97537.59;10412745;28;20055;-57
2022/07/09 14:50:30;;;;;;;6.20;5.60;;;;;;;22.21;66.69;97531.69;10404824;28;20119;-57
2022/07/09 14:55:29;;;;;;;8.25;6.13;;;;;;;22.01;68.34;97537.97;10412763;28;20029;-57
2022/07/09 15:00:28;;;;;;;7.93;5.90;;;;;;;21.89;68.53;97528.84;10415610;28;20466;-57
2022/07/09 15:05:27;;;;;;;6.70;5.63;;;;;;;21.79;68.59;97527.63;10414071;28;20067;-57
2022/07/09 15:10:26;;;;;;;6.93;5.43;;;;;;;21.94;69.36;97524.22;10415962;28;20044;-57
2022/07/09 15:15:25;;;;;;;7.25;5.55;;;;;;;22.33;68.82;97523.13;10416093;28;20051;-57
2022/07/09 15:20:24;;;;;;;6.97;5.35;;;;;;;22.58;66.75;97508.63;10415293;28;20052;-57
2022/07/09 15:25:23;;;;;;;5.03;4.53;;;;;;;22.66;64.04;97509.03;10414057;28;20852;-58
2022/07/09 15:30:22;;;;;;;5.55;4.95;;;;;;;22.36;62.44;97500.94;10416956;28;20530;-57
2022/07/09 15:35:21;;;;;;;5.40;4.90;;;;;;;22.35;61.90;97496.63;10415833;28;20060;-57
2022/07/09 15:40:21;;;;;;;6.95;5.57;;;;;;;22.10;60.47;97494.38;10416217;28;20091;-57
2022/07/09 15:45:20;;;;;;;4.80;4.38;;;;;;;21.62;60.31;97506.50;10417930;28;20480;-58
2022/07/09 15:50:20;;;;;;;5.20;4.50;;;;;;;21.68;59.94;97498.25;10414496;28;20063;-57
2022/07/09 15:55:19;;;;;;;6.80;4.78;;;;;;;21.88;60.36;97495.47;10415912;28;20083;-57
2022/07/09 16:00:25;;;;;;;5.75;4.68;;;;;;;22.00;58.28;97491.38;10415654;28;20050;-57
2022/07/09 16:05:24;;;;;;;5.45;4.07;;;;;;;22.08;57.67;97493.59;10415265;28;20072;-57
2022/07/09 16:10:22;;;;;;;5.10;4.20;;;;;;;21.97;57.64;97502.91;10415414;28;20044;-57
2022/07/09 16:15:26;;;;;;;4.82;4.10;;;;;;;22.00;59.42;97504.59;10415423;28;20111;-57
2022/07/09 16:20:25;;;;;;;6.13;4.72;;;;;;;21.94;58.05;97504.84;10415282;28;20709;-58
2022/07/09 16:25:24;;;;;;;5.20;4.45;;;;;;;21.96;58.95;97501.19;10416080;28;20079;-57
2022/07/09 16:30:25;;;;;;;4.63;4.18;;;;;;;22.11;58.66;97506.69;10418173;28;20550;-57
2022/07/09 16:35:24;;;;;;;5.35;4.30;;;;;;;21.86;57.71;97507.88;10414714;28;20072;-57
2022/07/09 16:40:23;;;;;;;6.30;4.30;;;;;;;21.69;58.68;97505.25;10416072;28;20118;-57
2022/07/09 16:45:22;;;;;;;10.13;5.50;;;;;;;21.71;58.77;97503.38;10416903;28;20044;-57
2022/07/09 16:50:21;;;;;;;7.50;5.15;;;;;;;21.66;58.84;97513.31;10419758;28;20106;-57
2022/07/09 16:55:20;;;;;;;7.57;4.60;;;;;;;21.49;59.40;97511.50;10425050;28;20447;-57
2022/07/09 17:00:19;;;;;;;5.32;4.57;;;;;;;21.29;60.22;97509.84;10425824;28;20493;-57
2022/07/09 17:05:18;;;;;;;5.32;4.57;;;;;;;21.39;60.80;97507.63;10425543;28;20068;-57
2022/07/09 17:10:17;;;;;;;5.53;4.65;;;;;;;21.08;61.66;97520.47;10425935;28;20059;-57
2022/07/09 17:15:16;;;;;;;5.40;4.55;;;;;;;20.99;61.18;97512.97;10425881;28;20020;-57
2022/07/09 17:20:15;;;;;;;5.15;4.55;;;;;;;20.83;62.84;97504.06;10425641;28;20677;-57
2022/07/09 17:25:15;;;;;;;5.15;4.50;;;;;;;20.66;63.13;97513.59;10424643;28;20120;-57
2022/07/09 17:30:15;;;;;;;6.40;4.30;;;;;;;20.50;63.90;97515.22;10422146;28;20071;-57
2022/07/09 17:35:14;;;;;;;6.60;4.70;;;;;;;20.33;65.76;97521.22;10421738;28;20072;-57
2022/07/09 17:40:13;;;;;;;6.38;4.97;;;;;;;20.11;66.60;97510.75;10421229;28;20083;-57
2022/07/09 17:45:12;;;;;;;7.00;5.03;;;;;;;20.07;67.36;97527.59;10421731;28;20762;-57
2022/07/09 17:50:12;;;;;;;8.00;5.53;;;;;;;19.97;67.99;97528.91;10421050;28;20490;-57
2022/07/09 17:55:20;;;;;;;5.78;4.90;;;;;;;19.86;68.28;97537.25;10420941;28;20060;-57
2022/07/09 18:00:21;;;;;;;8.43;5.30;;;;;;;19.78;69.38;97529.69;10420632;28;20056;-57
2022/07/09 18:05:22;;;;;;;6.65;5.55;;;;;;;19.62;70.48;97536.50;10419247;28;20713;-57
2022/07/09 18:10:23;;;;;;;9.60;6.78;;;;;;;19.45;72.07;97542.44;10419654;28;20068;-57
2022/07/09 18:15:22;;;;;;;10.57;7.93;;;;;;;19.26;73.53;97544.09;10418431;28;20072;-57
2022/07/09 18:20:21;;;;;;;10.13;7.97;;;;;;;18.99;75.23;97550.38;10418051;28;20038;-57
2022/07/09 18:25:20;;;;;;;10.25;7.55;;;;;;;18.77;76.31;97559.97;10417764;28;20072;-57
2022/07/09 18:30:19;;;;;;;10.15;7.05;;;;;;;18.52;77.44;97560.81;10417909;28;20098;-57
2022/07/09 18:35:18;;;;;;;9.20;7.50;;;;;;;18.34;78.40;97558.88;10417371;28;20013;-57
2022/07/09 18:40:17;;;;;;;9.15;7.18;;;;;;;18.14;79.30;97559.53;10417104;28;20107;-57
2022/07/09 18:45:16;;;;;;;10.63;7.53;;;;;;;18.00;80.08;97578.41;10416964;28;20078;-56
2022/07/09 18:50:15;;;;;;;8.57;7.22;;;;;;;17.86;80.57;97575.38;10416839;28;20444;-57
2022/07/09 18:55:15;;;;;;;9.75;7.25;;;;;;;17.69;81.36;97578.53;10416304;28;20068;-57
2022/07/09 19:00:14;;;;;;;10.70;6.88;;;;;;;17.56;81.87;97575.41;10416139;28;20602;-57
2022/07/09 19:05:13;;;;;;;9.25;7.00;;;;;;;17.46;82.05;97579.25;10416480;28;20593;-57
2022/07/09 19:10:12;;;;;;;8.82;6.50;;;;;;;17.39;82.48;97590.84;10415507;28;20147;-57
2022/07/09 19:15:11;;;;;;;;;;;;;;;17.31;83.05;97586.69;10414829;28;20032;-56
2022/07/09 19:20:13;;;;;;;12.97;7.37;;;;;;;17.26;83.18;97590.34;10416657;28;19940;-56
2022/07/09 19:25:12;;;;;;;9.15;6.85;;;;;;;17.18;83.53;97590.59;10416885;28;20072;-56
2022/07/09 19:30:11;;;;;;;10.60;7.55;;;;;;;17.14;83.80;97591.56;10419191;28;20044;-57
2022/07/09 19:35:10;;;;;;;;;;;;;;;17.07;84.27;97579.56;10418867;28;20035;-56
2022/07/09 19:40:09;;;;;;;7.70;6.80;;;;;;;16.99;84.74;97587.66;10418099;28;19922;-56
2022/07/09 19:45:09;;;;;;;9.30;7.30;;;;;;;16.86;85.13;97591.53;10418020;28;20060;-57
2022/07/09 19:50:09;;;;;;;9.43;7.72;;;;;;;16.77;85.74;97600.50;10417980;28;20032;-57
2022/07/09 19:55:08;;;;;;;9.27;7.30;;;;;;;16.68;86.06;97592.91;10417143;28;20055;-57
2022/07/09 20:00:09;;;;;;;10.60;7.78;;;;;;;16.62;86.23;97590.44;10418530;28;20452;-57
2022/07/09 20:05:08;;;;;;;9.98;8.32;;;;;;;16.52;86.79;97595.09;10417839;28;20060;-57
2022/07/09 20:10:08;;;;;;;11.52;8.93;;;;;;;16.41;87.45;97594.50;10415597;28;20129;-57
2022/07/09 20:15:07;;;;;;;12.30;8.15;;;;;;;16.29;87.70;97579.97;10417746;28;20075;-56
2022/07/09 20:20:07;;;;;;;9.45;7.88;;;;;;;16.23;88.06;97586.25;10417769;28;20064;-58
2022/07/09 20:25:06;;;;;;;10.65;8.73;;;;;;;16.13;89.08;97586.53;10415812;28;20072;-58
2022/07/09 20:30:06;;;;;;;16.88;9.48;;;;;;;16.03;89.60;97584.13;10413336;28;20063;-59
2022/07/09 20:35:05;;;;;;;15.95;9.10;;;;;;;15.97;89.89;97589.53;10414878;28;20083;-57
2022/07/09 20:40:05;;;;;;;11.75;8.68;;;;;;;15.89;90.35;97586.25;10412980;28;20492;-57
2022/07/09 20:45:05;;;;;;;12.45;9.07;;;;;;;15.80;90.41;97582.09;10413662;28;20060;-57
2022/07/09 20:50:05;;;;;;;18.17;11.50;;;;;;;15.78;90.97;97583.00;10413451;28;20056;-57
2022/07/09 20:55:04;;;;;;;15.00;10.73;;;;;;;15.75;91.02;97576.09;10413580;28;20071;-57
2022/07/09 21:00:04;;;;;;;18.40;12.13;;;;;;;15.71;92.29;97578.81;10412805;28;20056;-57
2022/07/09 21:05:04;;;;;;;16.75;12.80;;;;;;;15.71;92.59;97586.66;10413127;28;20099;-57
2022/07/09 21:10:03;;;;;;;17.30;11.45;;;;;;;15.61;94.48;97581.66;10412208;28;20075;-56
2022/07/09 21:15:04;;;;;;;13.90;9.52;;;;;;;15.68;93.98;97591.06;10412677;28;20080;-57
2022/07/09 21:20:03;;;;;;;13.30;9.27;;;;;;;15.74;94.01;97586.59;10413137;28;20068;-57
2022/07/09 21:25:03;;;;;;;15.30;9.07;;;;;;;15.66;94.30;97579.78;10412476;28;20060;-57
2022/07/09 21:30:02;;;;;;;12.40;9.05;;;;;;;15.66;94.07;97584.16;10412122;28;20056;-57
2022/07/09 21:35:02;;;;;;;15.45;9.82;;;;;;;15.65;94.37;97577.22;10412933;28;20474;-57
2022/07/09 21:40:00;;;;;;;12.13;9.40;;;;;;;15.60;94.55;97574.72;10418948;28;20511;-57
2022/07/09 21:45:00;;;;;;;;;;;;;;;15.50;94.73;97573.19;10420131;28;20033;-57
2022/07/09 21:49:58;;;;;;;11.90;8.67;;;;;;;15.43;94.90;97574.25;10419427;28;19951;-57
2022/07/09 21:54:57;;;;;;;;;;;;;;;15.42;94.85;97580.38;10419330;28;20110;-57
2022/07/09 21:59:58;;;;;;;17.60;13.10;;;;;;;15.38;95.07;97582.19;10418701;28;20379;-57
2022/07/09 22:04:57;;;;;;;14.68;12.35;;;;;;;15.39;95.09;97575.22;10419299;28;20068;-56
2022/07/09 22:09:55;;;;;;;;;;;;;;;15.35;95.47;97574.44;10419023;28;20035;-56
2022/07/09 22:14:54;;;;;;;17.50;12.40;;;;;;;15.25;95.88;97565.09;10418339;28;19959;-56
2022/07/09 22:19:53;;;;;;;;;;;;;;;15.21;95.69;97550.34;10417898;28;20107;-57
2022/07/09 22:24:52;;;;;;;14.32;12.60;;;;;;;15.18;95.98;97540.84;10416048;28;19913;-57
2022/07/09 22:29:51;;;;;;;;;;;;;;;15.15;95.75;97548.72;10416581;28;20039;-57
2022/07/09 22:34:50;;;;;;;16.83;13.20;;;;;;;15.12;95.65;97551.41;10417183;28;19909;-56
2022/07/09 22:39:49;;;;;;;;;;;;;;;15.04;96.18;97554.22;10418008;28;20046;-57
2022/07/09 22:44:47;;;;;;;17.48;11.75;;;;;;;14.88;97.03;97551.97;10417219;28;19951;-57
2022/07/09 22:49:46;;;;;;;;;;;;;;;14.66;97.88;97547.13;10417151;28;20028;-56
2022/07/09 22:54:45;;;;;;;15.25;11.20;;;;;;;14.46;98.84;97557.16;10417343;28;20299;-56
2022/07/09 22:59:44;;;;;;;14.68;12.23;;;;;;;14.45;98.87;97558.03;10416892;28;20075;-57
2022/07/09 23:04:43;;;;;;;16.40;13.32;;;;;;;14.50;98.94;97556.19;10416736;28;20078;-57